createdAt,value
2018-06-16T00:01:31.767Z,6.93
2018-06-16T00:04:00.669Z,7.33
2018-06-16T00:06:29.544Z,8.47
2018-06-16T00:08:58.527Z,8.27
2018-06-16T00:11:27.379Z,8.20
2018-06-16T00:13:56.253Z,8.30
2018-06-16T00:16:25.165Z,6.70
2018-06-16T00:18:53.877Z,7.63
2018-06-16T00:21:22.773Z,7.23
2018-06-16T00:23:51.532Z,7.67
2018-06-16T00:26:20.439Z,7.40
2018-06-16T00:28:49.325Z,8.20
2018-06-16T00:31:18.376Z,7.27
2018-06-16T00:33:47.346Z,8.43
2018-06-16T00:36:16.278Z,9.50
2018-06-16T00:38:45.089Z,9.67
2018-06-16T00:41:13.947Z,9.90
2018-06-16T00:43:43.170Z,9.43
2018-06-16T00:46:12.019Z,9.53
2018-06-16T00:48:45.351Z,9.43
2018-06-16T00:51:14.337Z,9.80
2018-06-16T00:53:43.088Z,9.07
2018-06-16T00:56:12.548Z,9.77
2018-06-16T00:58:42.449Z,10.87
2018-06-16T01:01:11.284Z,9.53
2018-06-16T01:03:40.251Z,10.80
2018-06-16T01:06:09.223Z,9.33
2018-06-16T01:08:38.310Z,9.53
2018-06-16T01:11:07.164Z,8.73
2018-06-16T01:13:35.909Z,10.10
2018-06-16T01:16:04.785Z,10.33
2018-06-16T01:18:33.575Z,10.87
2018-06-16T01:21:02.357Z,10.30
2018-06-16T01:23:31.187Z,10.97
2018-06-16T01:25:59.986Z,9.90
2018-06-16T01:28:28.743Z,9.50
2018-06-16T01:30:57.685Z,9.33
2018-06-16T01:33:26.531Z,9.03
2018-06-16T01:35:55.477Z,10.23
2018-06-16T01:38:24.361Z,10.27
2018-06-16T01:40:53.157Z,10.73
2018-06-16T01:43:22.197Z,11.00
2018-06-16T01:45:51.333Z,11.60
2018-06-16T01:48:20.469Z,11.70
2018-06-16T01:50:49.375Z,11.17
2018-06-16T01:53:18.199Z,11.33
2018-06-16T01:55:46.548Z,11.17
2018-06-16T01:58:15.717Z,10.70
2018-06-16T02:00:44.736Z,11.30
2018-06-16T02:03:13.821Z,11.08
2018-06-16T02:05:42.925Z,11.60
2018-06-16T02:08:11.836Z,9.87
2018-06-16T02:10:40.720Z,10.60
2018-06-16T02:13:09.515Z,12.00
2018-06-16T02:15:38.491Z,10.80
2018-06-16T02:18:07.395Z,11.37
2018-06-16T02:20:36.061Z,11.23
2018-06-16T02:23:04.920Z,11.67
2018-06-16T02:25:33.804Z,10.23
2018-06-16T02:28:02.717Z,11.87
2018-06-16T02:30:31.452Z,10.30
2018-06-16T02:33:00.921Z,10.73
2018-06-16T02:35:29.733Z,10.47
2018-06-16T02:37:58.583Z,11.30
2018-06-16T02:40:27.464Z,11.83
2018-06-16T02:42:56.943Z,10.97
2018-06-16T02:45:25.977Z,10.90
2018-06-16T02:47:54.985Z,12.10
2018-06-16T02:50:27.346Z,12.30
2018-06-16T02:52:56.164Z,10.58
2018-06-16T02:55:25.183Z,12.10
2018-06-16T02:57:54.028Z,11.73
2018-06-16T03:00:22.847Z,10.30
2018-06-16T03:02:51.672Z,11.87
2018-06-16T03:05:20.543Z,11.50
2018-06-16T03:07:49.401Z,12.53
2018-06-16T03:10:18.277Z,11.87
2018-06-16T03:12:47.208Z,11.20
2018-06-16T03:15:16.099Z,12.00
2018-06-16T03:17:45.044Z,12.90
2018-06-16T03:20:14.268Z,13.77
2018-06-16T03:22:43.070Z,12.27
2018-06-16T03:25:11.971Z,13.03
2018-06-16T03:27:40.920Z,12.00
2018-06-16T03:30:09.762Z,12.40
2018-06-16T03:32:38.590Z,11.53
2018-06-16T03:35:07.423Z,10.67
2018-06-16T03:37:36.251Z,10.43
2018-06-16T03:40:05.399Z,11.73
2018-06-16T03:42:35.406Z,10.73
2018-06-16T03:45:04.438Z,11.77
2018-06-16T03:47:33.287Z,10.73
2018-06-16T03:50:02.022Z,11.27
2018-06-16T03:52:31.054Z,11.60
2018-06-16T03:55:00.207Z,11.80
2018-06-16T03:57:29.016Z,11.07
2018-06-16T03:59:57.809Z,13.23
2018-06-16T04:02:26.771Z,11.30
2018-06-16T04:04:55.229Z,11.63
2018-06-16T04:07:24.042Z,11.43
2018-06-16T04:09:52.965Z,11.47
2018-06-16T04:12:22.345Z,10.50
2018-06-16T04:14:51.139Z,12.20
2018-06-16T04:17:21.023Z,13.27
2018-06-16T04:19:51.211Z,13.33
2018-06-16T04:22:20.679Z,11.80
2018-06-16T04:24:49.450Z,13.13
2018-06-16T04:27:18.385Z,12.27
2018-06-16T04:29:47.371Z,13.30
2018-06-16T04:32:16.104Z,11.23
2018-06-16T04:34:44.909Z,12.55
2018-06-16T04:37:13.896Z,12.90
2018-06-16T04:39:43.183Z,12.87
2018-06-16T04:42:12.107Z,12.83
2018-06-16T04:44:40.474Z,11.90
2018-06-16T04:47:09.662Z,12.40
2018-06-16T04:49:38.446Z,11.10
2018-06-16T04:52:07.508Z,12.60
2018-06-16T04:54:36.345Z,8.77
2018-06-16T04:57:05.357Z,11.27
2018-06-16T04:59:34.250Z,11.77
2018-06-16T05:02:03.260Z,11.23
2018-06-16T05:04:32.144Z,9.67
2018-06-16T05:07:00.999Z,10.30
2018-06-16T05:09:29.800Z,11.07
2018-06-16T05:11:58.592Z,8.80
2018-06-16T05:14:27.486Z,10.30
2018-06-16T05:16:56.336Z,10.00
2018-06-16T05:19:25.209Z,10.43
2018-06-16T05:21:54.077Z,8.97
2018-06-16T05:24:22.910Z,9.58
2018-06-16T05:26:51.786Z,9.43
2018-06-16T05:29:20.516Z,10.60
2018-06-16T05:31:49.339Z,9.75
2018-06-16T05:34:18.235Z,13.70
2018-06-16T05:36:47.608Z,10.03
2018-06-16T05:39:16.341Z,10.88
2018-06-16T05:41:45.063Z,9.55
2018-06-16T05:44:13.943Z,10.63
2018-06-16T05:46:42.609Z,13.45
2018-06-16T05:49:11.347Z,11.78
2018-06-16T05:51:40.130Z,10.45
2018-06-16T05:54:09.022Z,9.48
2018-06-16T05:56:37.740Z,9.40
2018-06-16T05:59:06.625Z,8.45
2018-06-16T06:01:35.577Z,7.90
2018-06-16T06:04:04.612Z,9.75
2018-06-16T06:06:33.428Z,7.12
2018-06-16T06:09:02.527Z,8.05
2018-06-16T06:11:31.266Z,7.42
2018-06-16T06:13:59.889Z,8.68
2018-06-16T06:16:28.642Z,9.95
2018-06-16T06:18:57.420Z,7.90
2018-06-16T06:21:26.684Z,6.60
2018-06-16T06:23:56.586Z,8.98
2018-06-16T06:26:25.280Z,7.87
2018-06-16T06:28:54.857Z,7.87
2018-06-16T06:31:23.766Z,6.95
2018-06-16T06:33:52.502Z,7.92
2018-06-16T06:36:22.093Z,6.87
2018-06-16T06:38:51.208Z,6.22
2018-06-16T06:41:20.628Z,6.45
2018-06-16T06:43:49.754Z,5.78
2018-06-16T06:46:18.592Z,5.35
2018-06-16T06:48:47.446Z,7.00
2018-06-16T06:51:16.397Z,6.03
2018-06-16T06:53:45.145Z,6.30
2018-06-16T06:56:13.830Z,6.22
2018-06-16T06:58:42.756Z,6.00
2018-06-16T07:01:11.497Z,6.70
2018-06-16T07:03:40.744Z,8.03
2018-06-16T07:06:09.496Z,7.45
2018-06-16T07:08:38.348Z,6.37
2018-06-16T07:11:07.219Z,6.65
2018-06-16T07:13:36.212Z,6.42
2018-06-16T07:16:05.423Z,7.62
2018-06-16T07:18:34.396Z,7.92
2018-06-16T07:21:03.137Z,7.53
2018-06-16T07:23:32.168Z,6.33
2018-06-16T07:26:01.131Z,6.05
2018-06-16T07:28:29.957Z,6.55
2018-06-16T07:30:59.736Z,6.15
2018-06-16T07:33:28.629Z,5.10
2018-06-16T07:35:57.430Z,5.30
2018-06-16T07:38:26.697Z,6.25
2018-06-16T07:40:55.721Z,6.83
2018-06-16T07:43:24.747Z,6.20
2018-06-16T07:45:53.610Z,5.23
2018-06-16T07:48:22.078Z,5.00
2018-06-16T07:50:50.858Z,5.03
2018-06-16T07:53:19.783Z,5.50
2018-06-16T07:55:48.589Z,4.87
2018-06-16T07:58:17.477Z,4.43
2018-06-16T08:00:46.289Z,5.00
2018-06-16T08:03:15.073Z,4.70
2018-06-16T08:05:44.042Z,5.13
2018-06-16T08:08:12.948Z,5.13
2018-06-16T08:10:41.741Z,5.10
2018-06-16T08:13:11.646Z,5.33
2018-06-16T08:15:40.528Z,5.20
2018-06-16T08:18:09.522Z,4.93
2018-06-16T08:20:38.529Z,5.40
2018-06-16T08:23:07.475Z,5.30
2018-06-16T08:25:36.370Z,4.28
2018-06-16T08:28:05.315Z,4.33
2018-06-16T08:30:34.142Z,4.92
2018-06-16T08:33:03.051Z,4.92
2018-06-16T08:35:31.891Z,5.28
2018-06-16T08:38:00.721Z,4.90
2018-06-16T08:40:29.531Z,4.60
2018-06-16T08:42:58.349Z,4.65
2018-06-16T08:45:27.425Z,4.62
2018-06-16T08:48:02.961Z,4.70
2018-06-16T08:50:32.145Z,4.72
2018-06-16T08:53:01.283Z,5.40
2018-06-16T08:55:30.338Z,4.90
2018-06-16T08:57:59.310Z,4.50
2018-06-16T09:00:28.192Z,4.83
2018-06-16T09:02:58.141Z,4.30
2018-06-16T09:05:26.505Z,4.20
2018-06-16T09:08:00.724Z,3.90
2018-06-16T09:10:29.475Z,3.70
2018-06-16T09:12:58.463Z,3.95
2018-06-16T09:15:33.431Z,3.87
2018-06-16T09:18:02.169Z,4.00
2018-06-16T09:20:31.004Z,4.00
2018-06-16T09:22:59.821Z,4.03
2018-06-16T09:25:28.594Z,3.40
2018-06-16T09:27:57.517Z,3.72
2018-06-16T09:30:26.349Z,3.52
2018-06-16T09:32:55.219Z,3.47
2018-06-16T09:35:46.578Z,3.30
2018-06-16T09:38:15.514Z,4.00
2018-06-16T09:40:44.324Z,3.35
2018-06-16T09:43:13.212Z,3.00
2018-06-16T09:45:41.981Z,3.10
2018-06-16T09:48:10.974Z,3.22
2018-06-16T09:50:39.707Z,3.00
2018-06-16T09:53:08.985Z,3.10
2018-06-16T09:55:37.713Z,4.08
2018-06-16T09:58:06.601Z,4.10
2018-06-16T10:00:40.538Z,3.22
2018-06-16T10:03:10.547Z,3.90
2018-06-16T10:05:39.369Z,3.27
2018-06-16T10:08:08.419Z,3.50
2018-06-16T10:10:37.389Z,3.33
2018-06-16T10:13:06.274Z,3.37
2018-06-16T10:15:35.141Z,3.40
2018-06-16T10:18:03.957Z,2.90
2018-06-16T10:20:32.762Z,2.83
2018-06-16T10:23:01.527Z,2.40
2018-06-16T10:25:38.052Z,2.98
2018-06-16T10:28:07.292Z,3.37
2018-06-16T10:30:36.511Z,2.90
2018-06-16T10:33:09.543Z,3.00
2018-06-16T10:35:38.411Z,3.27
2018-06-16T10:38:07.421Z,3.00
2018-06-16T10:40:37.320Z,4.22
2018-06-16T10:43:07.041Z,5.05
2018-06-16T10:45:35.981Z,3.22
2018-06-16T10:48:04.861Z,3.80
2018-06-16T10:50:33.662Z,3.40
2018-06-16T10:53:08.360Z,3.02
2018-06-16T10:58:31.750Z,3.02
2018-06-16T11:01:00.689Z,3.58
2018-06-16T11:03:29.659Z,3.65
2018-06-16T11:05:58.497Z,3.37
2018-06-16T11:08:27.199Z,3.52
2018-06-16T11:10:56.407Z,3.20
2018-06-16T11:13:25.441Z,3.08
2018-06-16T11:15:54.595Z,3.37
2018-06-16T11:18:23.616Z,2.90
2018-06-16T11:20:52.437Z,3.30
2018-06-16T11:23:37.229Z,3.27
2018-06-16T11:26:06.370Z,3.60
2018-06-16T11:28:35.393Z,3.65
2018-06-16T11:31:04.203Z,3.45
2018-06-16T11:33:33.159Z,3.20
2018-06-16T11:36:02.089Z,3.37
2018-06-16T11:38:30.963Z,3.55
2018-06-16T11:40:59.775Z,3.25
2018-06-16T11:43:28.603Z,3.15
2018-06-16T11:45:57.371Z,3.40
2018-06-16T11:48:26.161Z,3.60
2018-06-16T11:50:55.025Z,3.25
2018-06-16T11:53:38.056Z,3.22
2018-06-16T11:56:07.020Z,3.00
2018-06-16T11:58:36.275Z,3.27
2018-06-16T12:01:05.329Z,3.05
2018-06-16T12:03:44.425Z,2.67
2018-06-16T12:06:13.612Z,3.60
2018-06-16T12:08:42.511Z,3.35
2018-06-16T12:11:11.089Z,3.95
2018-06-16T12:13:39.529Z,3.42
2018-06-16T12:16:08.141Z,3.35
2018-06-16T12:18:36.819Z,3.00
2018-06-16T12:21:07.592Z,4.10
2018-06-16T12:23:38.397Z,3.22
2018-06-16T12:26:13.885Z,3.02
2018-06-16T12:28:42.361Z,3.10
2018-06-16T12:31:13.323Z,3.62
2018-06-16T12:33:43.686Z,3.20
2018-06-16T12:36:13.437Z,3.10
2018-06-16T12:38:43.453Z,3.35
2018-06-16T12:53:54.989Z,3.40
2018-06-16T12:56:23.887Z,3.90
2018-06-16T13:10:00.374Z,3.42
2018-06-16T13:12:29.109Z,3.55
2018-06-16T13:14:57.663Z,3.30
2018-06-16T13:17:26.443Z,3.20
2018-06-16T13:19:54.723Z,3.25
2018-06-16T13:22:23.559Z,2.85
2018-06-16T13:24:52.233Z,3.00
2018-06-16T13:27:20.982Z,3.00
2018-06-16T13:29:49.667Z,3.15
2018-06-16T13:32:18.424Z,3.20
2018-06-16T13:34:49.130Z,3.15
2018-06-16T13:37:17.819Z,3.00
2018-06-16T13:39:46.524Z,2.72
2018-06-16T13:42:15.253Z,3.12
2018-06-16T13:44:43.879Z,3.50
2018-06-16T13:47:12.729Z,3.25
2018-06-16T13:49:41.592Z,3.35
2018-06-16T13:52:10.646Z,3.45
2018-06-16T13:54:39.483Z,3.30
2018-06-16T13:57:08.305Z,3.60
2018-06-16T13:59:37.373Z,3.52
2018-06-16T14:02:06.193Z,3.30
2018-06-16T14:04:34.787Z,3.50
2018-06-16T14:07:03.527Z,3.30
2018-06-16T14:09:32.196Z,3.30
2018-06-16T14:12:00.914Z,3.27
2018-06-16T14:14:29.536Z,3.20
2018-06-16T14:16:58.239Z,3.60
2018-06-16T14:19:27.037Z,3.62
2018-06-16T14:21:55.674Z,3.50
2018-06-16T14:24:24.298Z,3.85
2018-06-16T14:26:53.139Z,3.80
2018-06-16T14:29:21.916Z,3.72
2018-06-16T14:31:50.646Z,3.22
2018-06-16T14:34:19.344Z,3.12
2018-06-16T14:36:48.023Z,3.08
2018-06-16T14:39:16.768Z,3.22
2018-06-16T14:41:57.183Z,3.20
2018-06-16T14:44:26.138Z,3.10
2018-06-16T14:46:54.910Z,3.00
2018-06-16T14:49:23.714Z,3.05
2018-06-16T14:51:52.331Z,2.90
2018-06-16T14:54:21.126Z,3.50
2018-06-16T14:56:49.763Z,3.27
2018-06-16T14:59:18.452Z,3.15
2018-06-16T15:01:47.180Z,2.90
2018-06-16T15:04:15.953Z,3.12
2018-06-16T15:06:44.620Z,3.05
2018-06-16T15:09:13.480Z,3.27
2018-06-16T15:11:42.270Z,3.37
2018-06-16T15:14:11.072Z,2.90
2018-06-16T15:16:39.911Z,3.27
2018-06-16T15:19:08.598Z,3.60
2018-06-16T15:21:37.253Z,3.55
2018-06-16T15:24:06.054Z,3.22
2018-06-16T15:26:34.776Z,3.47
2018-06-16T15:29:03.437Z,3.62
2018-06-16T15:31:32.120Z,7.65
2018-06-16T15:34:01.184Z,3.60
2018-06-16T15:36:29.988Z,4.10
2018-06-16T15:38:58.824Z,4.12
2018-06-16T15:41:27.576Z,3.45
2018-06-16T15:43:56.305Z,4.10
2018-06-16T15:46:25.094Z,3.62
2018-06-16T15:48:53.939Z,3.83
2018-06-16T15:51:22.720Z,3.47
2018-06-16T15:53:51.444Z,2.65
2018-06-16T15:56:20.176Z,3.15
2018-06-16T15:58:48.924Z,3.40
2018-06-16T16:01:17.686Z,3.60
2018-06-16T16:03:46.419Z,3.87
2018-06-16T16:06:15.120Z,4.17
2018-06-16T16:08:44.093Z,3.92
2018-06-16T16:11:12.838Z,3.50
2018-06-16T16:13:41.672Z,3.25
2018-06-16T16:16:10.596Z,3.15
2018-06-16T16:18:40.406Z,3.70
2018-06-16T16:21:09.166Z,4.40
2018-06-16T16:23:37.985Z,4.05
2018-06-16T16:26:06.716Z,4.15
2018-06-16T16:28:35.428Z,4.10
2018-06-16T16:31:04.182Z,6.83
2018-06-16T16:33:33.006Z,4.67
2018-06-16T16:36:01.627Z,4.85
2018-06-16T16:38:30.492Z,4.40
2018-06-16T16:40:59.190Z,4.80
2018-06-16T16:43:27.999Z,4.45
2018-06-16T16:45:56.696Z,4.50
2018-06-16T16:48:25.517Z,4.72
2018-06-16T16:50:54.656Z,4.50
2018-06-16T16:53:23.344Z,7.42
2018-06-16T16:55:52.022Z,4.47
2018-06-16T16:58:20.732Z,4.10
2018-06-16T17:00:51.264Z,5.05
2018-06-16T17:03:19.910Z,3.87
2018-06-16T17:05:48.572Z,4.40
2018-06-16T17:08:17.388Z,4.22
2018-06-16T17:10:46.148Z,3.83
2018-06-16T17:13:15.003Z,4.53
2018-06-16T17:15:43.756Z,3.90
2018-06-16T17:18:13.711Z,4.15
2018-06-16T17:20:42.578Z,3.85
2018-06-16T17:23:11.446Z,4.00
2018-06-16T17:25:40.305Z,4.00
2018-06-16T17:28:09.771Z,4.70
2018-06-16T17:30:38.578Z,3.87
2018-06-16T17:33:07.370Z,3.50
2018-06-16T17:35:35.983Z,3.60
2018-06-16T17:38:04.704Z,3.47
2018-06-16T17:40:33.612Z,3.43
2018-06-16T17:43:02.296Z,4.30
2018-06-16T17:45:34.052Z,3.70
2018-06-16T17:48:02.804Z,4.00
2018-06-16T17:50:31.504Z,3.67
2018-06-16T17:53:00.234Z,3.70
2018-06-16T17:55:29.131Z,3.77
2018-06-16T17:57:57.832Z,3.70
2018-06-16T18:00:26.543Z,3.97
2018-06-16T18:02:55.459Z,4.13
2018-06-16T18:05:24.214Z,4.10
2018-06-16T18:07:52.968Z,4.20
2018-06-16T18:10:21.690Z,4.40
2018-06-16T18:12:50.451Z,4.07
2018-06-16T18:15:19.074Z,4.13
2018-06-16T18:17:47.851Z,3.83
2018-06-16T18:20:16.679Z,4.10
2018-06-16T18:22:45.596Z,4.30
2018-06-16T18:25:14.636Z,3.93
2018-06-16T18:27:43.630Z,4.00
2018-06-16T18:30:12.538Z,4.00
2018-06-16T18:32:41.422Z,4.27
2018-06-16T18:35:10.268Z,3.70
2018-06-16T18:37:39.022Z,3.90
2018-06-16T18:40:07.845Z,4.30
2018-06-16T18:42:36.654Z,3.83
2018-06-16T18:45:05.430Z,4.30
2018-06-16T18:47:34.174Z,4.10
2018-06-16T18:50:02.913Z,4.10
2018-06-16T18:52:31.702Z,4.07
2018-06-16T18:55:00.384Z,4.03
2018-06-16T18:57:29.082Z,4.33
2018-06-16T18:59:57.398Z,4.50
2018-06-16T19:02:26.066Z,4.40
2018-06-16T19:04:54.754Z,4.13
2018-06-16T19:07:23.450Z,4.70
2018-06-16T19:09:52.244Z,3.93
2018-06-16T19:12:21.032Z,3.97
2018-06-16T19:14:49.900Z,3.83
2018-06-16T19:17:18.651Z,4.13
2018-06-16T19:19:47.495Z,4.40
2018-06-16T19:22:16.311Z,4.37
2018-06-16T19:24:44.808Z,4.37
2018-06-16T19:27:13.647Z,4.20
2018-06-16T19:29:42.571Z,4.30
2018-06-16T19:32:11.355Z,4.50
2018-06-16T19:34:40.249Z,4.43
2018-06-16T19:37:09.099Z,4.40
2018-06-16T19:39:37.878Z,4.30
2018-06-16T19:42:06.551Z,4.20
2018-06-16T19:44:35.274Z,4.63
2018-06-16T19:47:04.052Z,4.23
2018-06-16T19:49:32.793Z,4.20
2018-06-16T19:52:01.473Z,4.67
2018-06-16T19:54:30.289Z,4.77
2018-06-16T19:56:59.059Z,4.60
2018-06-16T19:59:28.041Z,4.40
2018-06-16T20:01:56.692Z,3.80
2018-06-16T20:04:25.435Z,3.73
2018-06-16T20:06:54.227Z,3.90
2018-06-16T20:09:22.975Z,3.60
2018-06-16T20:11:51.774Z,4.07
2018-06-16T20:14:20.505Z,3.83
2018-06-16T20:16:49.601Z,3.63
2018-06-16T20:19:18.296Z,3.50
2018-06-16T20:21:47.185Z,3.97
2018-06-16T20:24:16.056Z,4.47
2018-06-16T20:26:45.051Z,3.70
2018-06-16T20:29:13.982Z,4.33
2018-06-16T20:31:42.844Z,4.07
2018-06-16T20:34:12.314Z,3.87
2018-06-16T20:36:41.209Z,3.73
2018-06-16T20:39:09.875Z,3.90
2018-06-16T20:41:38.898Z,3.57
2018-06-16T20:44:07.874Z,3.80
2018-06-16T20:46:36.585Z,3.70
2018-06-16T20:49:05.405Z,4.07
2018-06-16T20:51:34.124Z,3.70
2018-06-16T20:54:02.815Z,4.20
2018-06-16T20:56:31.566Z,4.07
2018-06-16T20:59:00.275Z,4.10
2018-06-16T21:01:29.027Z,4.40
2018-06-16T21:03:58.368Z,4.20
2018-06-16T21:06:27.167Z,5.00
2018-06-16T21:08:55.899Z,4.03
2018-06-16T21:11:24.571Z,4.00
2018-06-16T21:13:53.343Z,4.23
2018-06-16T21:16:22.220Z,4.10
2018-06-16T21:18:50.967Z,4.30
2018-06-16T21:21:19.629Z,4.23
2018-06-16T21:23:49.073Z,4.90
2018-06-16T21:26:17.894Z,4.90
2018-06-16T21:28:46.963Z,4.80
2018-06-16T21:31:15.943Z,5.10
2018-06-16T21:33:44.704Z,4.63
2018-06-16T21:36:13.575Z,4.97
2018-06-16T21:38:42.594Z,5.00
2018-06-16T21:41:11.649Z,5.23
2018-06-16T21:43:40.584Z,4.77
2018-06-16T21:46:09.385Z,5.13
2018-06-16T21:48:38.143Z,5.67
2018-06-16T21:51:06.926Z,4.93
2018-06-16T21:53:35.633Z,5.50
2018-06-16T21:56:04.397Z,6.10
2018-06-16T21:58:33.120Z,6.90
2018-06-16T22:01:01.785Z,6.93
2018-06-16T22:03:30.508Z,6.20
2018-06-16T22:05:59.749Z,7.80
2018-06-16T22:08:31.314Z,7.17
2018-06-16T22:11:00.793Z,8.10
2018-06-16T22:13:30.047Z,8.23
2018-06-16T22:15:58.743Z,7.77
2018-06-16T22:18:27.973Z,7.90
2018-06-16T22:20:57.215Z,7.30
2018-06-16T22:23:25.945Z,7.23
2018-06-16T22:25:54.637Z,6.87
2018-06-16T22:28:23.286Z,7.30
2018-06-16T22:30:52.086Z,6.90
2018-06-16T22:33:20.889Z,6.30
2018-06-16T22:35:49.778Z,6.10
2018-06-16T22:38:18.417Z,6.53
2018-06-16T22:40:47.129Z,6.50
2018-06-16T22:43:15.915Z,5.77
2018-06-16T22:45:44.667Z,6.57
2018-06-16T22:48:13.452Z,6.20
2018-06-16T22:50:42.529Z,6.47
2018-06-16T22:53:11.561Z,7.57
2018-06-16T22:55:40.580Z,8.07
2018-06-16T22:58:09.381Z,7.70
2018-06-16T23:00:38.177Z,7.20
2018-06-16T23:03:06.936Z,6.33
2018-06-16T23:05:35.639Z,6.80
2018-06-16T23:08:04.447Z,7.60
2018-06-16T23:10:33.350Z,6.97
2018-06-16T23:13:02.083Z,7.50
2018-06-16T23:15:30.973Z,7.47
2018-06-16T23:17:59.873Z,7.83
2018-06-16T23:20:28.626Z,7.43
2018-06-16T23:22:57.337Z,8.07
2018-06-16T23:25:26.292Z,7.90
2018-06-16T23:27:55.103Z,8.80
2018-06-16T23:30:23.750Z,8.70
2018-06-16T23:32:52.471Z,8.80
2018-06-16T23:35:21.111Z,8.90
2018-06-16T23:37:49.811Z,9.10
2018-06-16T23:40:18.511Z,9.00
2018-06-16T23:42:47.430Z,9.40
2018-06-16T23:45:16.245Z,8.67
2018-06-16T23:47:44.853Z,8.77
2018-06-16T23:50:13.676Z,9.57
2018-06-16T23:52:42.202Z,10.27
2018-06-16T23:55:10.893Z,12.43
2018-06-16T23:57:39.635Z,12.17
